createdAt,value
2018-03-25T00:00:36.797Z,1.38
2018-03-25T00:03:05.191Z,1.32
2018-03-25T00:05:33.537Z,1.26
2018-03-25T00:08:03.798Z,1.22
2018-03-25T00:10:33.136Z,1.20
2018-03-25T00:13:04.062Z,1.20
2018-03-25T00:15:33.280Z,1.22
2018-03-25T00:18:01.695Z,1.28
2018-03-25T00:20:30.061Z,1.30
2018-03-25T00:22:58.523Z,1.30
2018-03-25T00:25:28.766Z,1.31
2018-03-25T00:27:58.909Z,1.33
2018-03-25T00:30:27.291Z,1.31
2018-03-25T00:32:55.583Z,1.28
2018-03-25T00:35:25.689Z,1.26
2018-03-25T00:37:55.941Z,1.22
2018-03-25T00:40:27.015Z,1.17
2018-03-25T00:42:55.537Z,1.10
2018-03-25T00:45:25.150Z,1.08
2018-03-25T00:47:56.111Z,1.04
2018-03-25T00:50:24.489Z,1.01
2018-03-25T00:52:53.112Z,0.99
2018-03-25T00:55:21.470Z,0.97
2018-03-25T00:57:49.783Z,0.94
2018-03-25T01:00:18.119Z,0.91
2018-03-25T01:02:48.192Z,0.89
2018-03-25T01:05:16.595Z,0.89
2018-03-25T01:07:45.149Z,0.88
2018-03-25T01:10:13.443Z,0.90
2018-03-25T01:12:41.911Z,0.87
2018-03-25T01:15:13.138Z,0.86
2018-03-25T01:17:41.758Z,0.83
2018-03-25T01:20:10.087Z,0.77
2018-03-25T01:22:38.391Z,0.69
2018-03-25T01:25:06.721Z,0.66
2018-03-25T01:27:37.133Z,0.67
2018-03-25T01:30:05.486Z,0.68
2018-03-25T01:32:33.802Z,0.70
2018-03-25T01:35:02.152Z,0.71
2018-03-25T01:37:30.609Z,0.70
2018-03-25T01:40:00.661Z,0.68
2018-03-25T01:42:30.675Z,0.66
2018-03-25T01:45:03.191Z,0.58
2018-03-25T01:47:31.511Z,0.50
2018-03-25T01:49:59.853Z,0.49
2018-03-25T01:52:28.150Z,0.49
2018-03-25T01:54:58.223Z,0.47
2018-03-25T01:57:27.468Z,0.46
2018-03-25T01:59:56.561Z,0.43
2018-03-25T02:02:26.580Z,0.36
2018-03-25T02:04:55.062Z,0.33
2018-03-25T02:07:25.946Z,0.37
2018-03-25T02:09:54.414Z,0.41
2018-03-25T02:12:24.340Z,0.44
2018-03-25T02:14:52.786Z,0.46
2018-03-25T02:17:21.126Z,0.45
2018-03-25T02:19:49.455Z,0.45
2018-03-25T02:22:17.733Z,0.47
2018-03-25T02:24:46.115Z,0.47
2018-03-25T02:27:14.458Z,0.46
2018-03-25T02:29:43.476Z,0.44
2018-03-25T02:32:13.532Z,0.42
2018-03-25T02:34:45.249Z,0.38
2018-03-25T02:37:15.242Z,0.36
2018-03-25T02:39:46.313Z,0.35
2018-03-25T02:42:14.871Z,0.31
2018-03-25T02:44:43.173Z,0.27
2018-03-25T02:47:11.545Z,0.24
2018-03-25T02:49:41.585Z,0.21
2018-03-25T02:52:10.052Z,0.19
2018-03-25T02:54:39.125Z,0.17
2018-03-25T02:57:07.441Z,0.16
2018-03-25T02:59:36.848Z,0.13
2018-03-25T03:02:06.154Z,0.11
2018-03-25T03:04:34.483Z,0.09
2018-03-25T03:07:02.826Z,0.08
2018-03-25T03:09:31.395Z,0.07
2018-03-25T03:11:59.842Z,0.05
2018-03-25T03:14:29.913Z,0.04
2018-03-25T03:16:58.354Z,0.03
2018-03-25T03:19:26.684Z,0.03
2018-03-25T03:21:55.745Z,0.04
2018-03-25T03:24:24.054Z,0.03
2018-03-25T03:26:52.361Z,0.03
2018-03-25T03:29:20.728Z,0.00
2018-03-25T03:31:50.810Z,-0.02
2018-03-25T03:34:20.027Z,-0.07
2018-03-25T03:36:49.234Z,-0.07
2018-03-25T03:39:19.297Z,-0.06
2018-03-25T03:41:49.517Z,-0.06
2018-03-25T03:44:18.024Z,-0.09
2018-03-25T03:46:46.683Z,-0.11
2018-03-25T03:49:15.148Z,-0.10
2018-03-25T03:51:43.515Z,-0.11
2018-03-25T03:54:11.883Z,-0.13
2018-03-25T03:56:41.084Z,-0.12
2018-03-25T03:59:09.425Z,-0.12
2018-03-25T04:01:37.748Z,-0.13
2018-03-25T04:04:06.238Z,-0.13
2018-03-25T04:06:34.834Z,-0.16
2018-03-25T04:09:04.922Z,-0.20
2018-03-25T04:11:35.883Z,-0.23
2018-03-25T04:14:04.472Z,-0.27
2018-03-25T04:16:33.564Z,-0.34
2018-03-25T04:19:01.900Z,-0.42
2018-03-25T04:21:30.280Z,-0.46
2018-03-25T04:23:58.614Z,-0.45
2018-03-25T04:26:26.966Z,-0.42
2018-03-25T04:28:55.475Z,-0.40
2018-03-25T04:31:23.882Z,-0.38
2018-03-25T04:33:52.394Z,-0.40
2018-03-25T04:36:22.434Z,-0.42
2018-03-25T04:38:50.862Z,-0.44
2018-03-25T04:41:19.920Z,-0.43
2018-03-25T04:43:48.239Z,-0.44
2018-03-25T04:46:17.432Z,-0.43
2018-03-25T04:48:45.737Z,-0.39
2018-03-25T04:51:18.966Z,-0.39
2018-03-25T04:53:47.281Z,-0.40
2018-03-25T04:56:17.374Z,-0.40
2018-03-25T04:58:45.776Z,-0.42
2018-03-25T05:01:15.728Z,-0.40
2018-03-25T05:03:45.909Z,-0.42
2018-03-25T05:06:14.326Z,-0.42
2018-03-25T05:08:42.700Z,-0.44
2018-03-25T05:11:11.000Z,-0.45
2018-03-25T05:13:39.664Z,-0.49
2018-03-25T05:16:07.952Z,-0.51
2018-03-25T05:18:36.452Z,-0.46
2018-03-25T05:21:05.011Z,-0.45
2018-03-25T05:23:33.266Z,-0.45
2018-03-25T05:26:04.371Z,-0.46
2018-03-25T05:28:32.713Z,-0.47
2018-03-25T05:31:03.660Z,-0.49
2018-03-25T05:33:32.041Z,-0.52
2018-03-25T05:36:00.357Z,-0.50
2018-03-25T05:38:31.394Z,-0.45
2018-03-25T05:41:01.896Z,-0.41
2018-03-25T05:43:32.583Z,-0.37
2018-03-25T05:46:03.211Z,-0.35
2018-03-25T05:48:31.806Z,-0.32
2018-03-25T05:51:00.199Z,-0.32
2018-03-25T05:53:28.574Z,-0.27
2018-03-25T05:55:59.550Z,-0.21
2018-03-25T05:58:27.959Z,-0.18
2018-03-25T06:00:58.257Z,-0.15
2018-03-25T06:03:26.989Z,-0.13
2018-03-25T06:05:55.418Z,-0.13
2018-03-25T06:08:23.798Z,-0.11
2018-03-25T06:10:53.761Z,-0.07
2018-03-25T06:13:22.149Z,-0.07
2018-03-25T06:15:52.379Z,-0.06
2018-03-25T06:18:21.691Z,-0.03
2018-03-25T06:20:50.087Z,0.02
2018-03-25T06:23:18.619Z,0.06
2018-03-25T06:25:47.087Z,0.11
2018-03-25T06:28:15.421Z,0.17
2018-03-25T06:30:45.630Z,0.21
2018-03-25T06:33:14.121Z,0.24
2018-03-25T06:35:42.467Z,0.30
2018-03-25T06:38:10.954Z,0.35
2018-03-25T06:40:40.139Z,0.41
2018-03-25T06:43:10.439Z,0.47
2018-03-25T06:45:41.143Z,0.55
2018-03-25T06:48:12.286Z,0.59
2018-03-25T06:50:40.641Z,0.64
2018-03-25T06:53:10.031Z,0.72
2018-03-25T06:55:38.555Z,0.79
2018-03-25T06:58:09.555Z,0.87
2018-03-25T07:00:37.962Z,0.92
2018-03-25T07:03:07.201Z,0.97
2018-03-25T07:05:35.663Z,1.06
2018-03-25T07:08:05.328Z,1.13
2018-03-25T07:10:33.796Z,1.20
2018-03-25T07:13:02.401Z,1.27
2018-03-25T07:15:31.501Z,1.34
2018-03-25T07:18:00.943Z,1.41
2018-03-25T07:20:30.927Z,1.49
2018-03-25T07:23:00.999Z,1.56
2018-03-25T07:25:29.847Z,1.63
2018-03-25T07:27:59.935Z,1.74
2018-03-25T07:30:28.593Z,1.81
2018-03-25T07:32:58.667Z,1.89
2018-03-25T07:35:28.102Z,1.97
2018-03-25T07:37:59.329Z,2.05
2018-03-25T07:40:29.044Z,2.18
2018-03-25T07:42:57.528Z,2.29
2018-03-25T07:45:27.815Z,2.38
2018-03-25T07:47:58.480Z,2.49
2018-03-25T07:50:27.078Z,2.58
2018-03-25T07:52:55.383Z,2.68
2018-03-25T07:55:23.705Z,2.84
2018-03-25T07:57:52.040Z,3.05
2018-03-25T08:00:22.359Z,3.24
2018-03-25T08:02:53.061Z,3.47
2018-03-25T08:05:21.381Z,3.67
2018-03-25T08:07:49.809Z,3.81
2018-03-25T08:10:19.059Z,3.84
2018-03-25T08:12:47.535Z,3.83
2018-03-25T08:15:15.883Z,3.90
2018-03-25T08:17:45.967Z,3.93
2018-03-25T08:20:15.472Z,4.07
2018-03-25T08:22:45.861Z,4.22
2018-03-25T08:25:16.593Z,4.36
2018-03-25T08:27:47.497Z,4.45
2018-03-25T08:30:15.880Z,4.53
2018-03-25T08:32:44.222Z,4.53
2018-03-25T08:35:12.644Z,4.59
2018-03-25T08:37:40.971Z,4.69
2018-03-25T08:40:09.421Z,4.83
2018-03-25T08:42:37.755Z,4.86
2018-03-25T08:45:06.139Z,4.90
2018-03-25T08:47:36.102Z,4.94
2018-03-25T08:50:06.080Z,5.04
2018-03-25T08:52:36.808Z,5.20
2018-03-25T08:55:05.179Z,5.34
2018-03-25T08:57:34.610Z,5.51
2018-03-25T09:00:02.961Z,5.63
2018-03-25T09:02:31.378Z,5.79
2018-03-25T09:04:59.719Z,5.94
2018-03-25T09:07:28.163Z,6.06
2018-03-25T09:09:56.577Z,6.18
2018-03-25T09:12:25.056Z,6.34
2018-03-25T09:14:53.408Z,6.49
2018-03-25T09:17:24.585Z,6.63
2018-03-25T09:19:52.969Z,6.74
2018-03-25T09:22:23.024Z,6.76
2018-03-25T09:24:53.176Z,6.78
2018-03-25T09:27:21.612Z,6.80
2018-03-25T09:29:50.008Z,6.89
2018-03-25T09:32:20.199Z,7.00
2018-03-25T09:34:48.602Z,7.00
2018-03-25T09:37:16.970Z,6.98
2018-03-25T09:39:47.423Z,7.02
2018-03-25T09:42:16.602Z,7.17
2018-03-25T09:44:46.832Z,7.28
2018-03-25T09:47:15.206Z,7.31
2018-03-25T09:49:43.705Z,7.40
2018-03-25T09:52:12.136Z,7.43
2018-03-25T09:54:40.543Z,7.49
2018-03-25T09:57:09.027Z,7.58
2018-03-25T09:59:38.945Z,7.64
2018-03-25T10:02:11.850Z,7.69
2018-03-25T10:04:40.220Z,7.79
2018-03-25T10:07:08.621Z,7.93
2018-03-25T10:09:38.804Z,8.03
2018-03-25T10:12:07.258Z,8.15
2018-03-25T10:14:35.744Z,8.20
2018-03-25T10:17:04.218Z,8.21
2018-03-25T10:19:35.184Z,8.28
2018-03-25T10:22:03.574Z,8.29
2018-03-25T10:24:31.929Z,8.27
2018-03-25T10:27:01.002Z,8.32
2018-03-25T10:29:29.322Z,8.34
2018-03-25T10:31:57.834Z,8.50
2018-03-25T10:34:28.725Z,8.51
2018-03-25T10:36:58.238Z,8.59
2018-03-25T10:39:26.576Z,8.74
2018-03-25T10:41:56.021Z,8.77
2018-03-25T10:44:24.526Z,8.83
2018-03-25T10:46:54.654Z,8.95
2018-03-25T10:49:23.168Z,8.95
2018-03-25T10:51:52.808Z,8.97
2018-03-25T10:54:21.999Z,9.02
2018-03-25T10:56:50.390Z,9.10
2018-03-25T10:59:18.760Z,9.20
2018-03-25T11:01:49.398Z,9.21
2018-03-25T11:04:19.406Z,9.29
2018-03-25T11:06:47.850Z,9.34
2018-03-25T11:09:16.925Z,9.43
2018-03-25T11:11:45.297Z,9.57
2018-03-25T11:14:13.902Z,9.62
2018-03-25T11:16:43.991Z,9.63
2018-03-25T11:19:14.438Z,9.78
2018-03-25T11:21:43.592Z,9.82
2018-03-25T11:24:12.735Z,9.89
2018-03-25T11:26:43.926Z,10.15
2018-03-25T11:29:12.314Z,10.23
2018-03-25T11:31:40.685Z,10.19
2018-03-25T11:34:09.850Z,10.12
2018-03-25T11:36:40.221Z,10.18
2018-03-25T11:39:11.418Z,10.30
2018-03-25T11:41:40.032Z,10.45
2018-03-25T11:44:10.100Z,10.52
2018-03-25T11:46:39.778Z,10.47
2018-03-25T11:49:08.164Z,10.46
2018-03-25T11:51:37.812Z,10.46
2018-03-25T11:54:07.087Z,10.75
2018-03-25T11:56:35.745Z,10.87
2018-03-25T12:12:04.126Z,10.97
2018-03-25T12:14:35.073Z,11.20
2018-03-25T12:17:03.592Z,11.13
2018-03-25T12:19:31.869Z,11.07
2018-03-25T12:22:00.174Z,11.02
2018-03-25T12:24:28.561Z,11.14
2018-03-25T12:26:58.677Z,11.16
2018-03-25T12:29:27.012Z,11.12
2018-03-25T12:31:55.292Z,11.19
2018-03-25T12:34:23.650Z,11.28
2018-03-25T12:36:52.098Z,11.51
2018-03-25T12:39:20.582Z,11.75
2018-03-25T12:41:49.714Z,11.74
2018-03-25T12:44:18.067Z,11.69
2018-03-25T12:46:49.064Z,11.61
2018-03-25T12:49:17.428Z,11.67
2018-03-25T12:51:46.215Z,11.73
2018-03-25T12:54:14.584Z,11.73
2018-03-25T12:56:42.902Z,11.70
2018-03-25T12:59:12.966Z,11.76
2018-03-25T13:01:41.316Z,11.80
2018-03-25T13:04:09.853Z,11.80
2018-03-25T13:06:38.340Z,11.88
2018-03-25T13:09:06.660Z,11.86
2018-03-25T13:11:35.109Z,11.83
2018-03-25T13:14:03.461Z,11.90
2018-03-25T13:16:32.378Z,11.87
2018-03-25T13:19:00.745Z,11.86
2018-03-25T13:21:29.114Z,11.92
2018-03-25T13:23:58.157Z,12.01
2018-03-25T13:26:26.445Z,12.10
2018-03-25T13:28:54.938Z,12.15
2018-03-25T13:31:24.516Z,12.24
2018-03-25T13:33:54.080Z,12.32
2018-03-25T13:36:22.511Z,12.32
2018-03-25T13:38:50.900Z,12.26
2018-03-25T13:41:22.459Z,12.22
2018-03-25T13:43:51.039Z,12.28
2018-03-25T13:46:19.422Z,12.44
2018-03-25T13:48:47.756Z,12.74
2018-03-25T13:51:16.111Z,12.88
2018-03-25T13:53:44.581Z,12.90
2018-03-25T13:56:15.513Z,12.85
2018-03-25T13:58:45.708Z,12.85
2018-03-25T14:01:15.974Z,12.86
2018-03-25T14:03:44.452Z,12.96
2018-03-25T14:06:14.535Z,13.06
2018-03-25T14:08:43.663Z,13.00
2018-03-25T14:11:12.726Z,13.16
2018-03-25T14:13:41.051Z,13.19
2018-03-25T14:16:09.466Z,13.20
2018-03-25T14:18:40.806Z,13.40
2018-03-25T14:21:09.199Z,13.47
2018-03-25T14:23:37.578Z,13.65
2018-03-25T14:26:05.956Z,13.74
2018-03-25T14:28:34.305Z,13.60
2018-03-25T14:31:02.716Z,13.68
2018-03-25T14:33:31.090Z,13.72
2018-03-25T14:36:01.196Z,13.78
2018-03-25T14:38:29.674Z,13.93
2018-03-25T14:40:58.075Z,13.98
2018-03-25T14:43:26.444Z,14.02
2018-03-25T14:45:55.839Z,14.17
2018-03-25T14:48:25.161Z,14.04
2018-03-25T14:50:53.528Z,14.52
2018-03-25T14:53:22.913Z,15.00
2018-03-25T14:55:53.033Z,15.46
2018-03-25T14:58:21.517Z,15.73
2018-03-25T15:00:53.402Z,15.87
2018-03-25T15:03:21.960Z,15.61
2018-03-25T15:05:50.325Z,15.50
2018-03-25T15:08:18.643Z,15.71
2018-03-25T15:10:49.556Z,16.08
2018-03-25T15:13:18.695Z,16.24
2018-03-25T15:15:49.783Z,16.36
2018-03-25T15:18:18.511Z,16.57
2018-03-25T15:20:47.001Z,16.56
2018-03-25T15:23:15.297Z,16.46
2018-03-25T15:25:43.737Z,16.46
2018-03-25T15:28:13.163Z,16.66
2018-03-25T15:30:41.787Z,16.78
2018-03-25T15:33:10.275Z,16.67
2018-03-25T15:35:40.709Z,16.46
2018-03-25T15:38:13.591Z,16.28
2018-03-25T15:40:42.043Z,15.89
2018-03-25T15:43:12.398Z,15.68
2018-03-25T15:45:41.843Z,15.27
2018-03-25T15:48:10.347Z,15.09
2018-03-25T15:50:38.664Z,14.59
2018-03-25T15:53:06.972Z,14.11
2018-03-25T15:55:35.445Z,13.92
2018-03-25T15:58:03.829Z,13.81
2018-03-25T16:00:32.280Z,13.66
2018-03-25T16:03:00.619Z,13.35
2018-03-25T16:05:28.992Z,13.08
2018-03-25T16:07:57.257Z,13.03
2018-03-25T16:10:26.357Z,12.97
2018-03-25T16:12:55.555Z,12.84
2018-03-25T16:15:24.761Z,12.74
2018-03-25T16:17:53.129Z,12.63
2018-03-25T16:20:22.467Z,12.48
2018-03-25T16:22:51.825Z,12.25
2018-03-25T16:25:20.382Z,12.12
2018-03-25T16:27:49.820Z,12.00
2018-03-25T16:30:19.860Z,11.99
2018-03-25T16:32:48.262Z,11.94
2018-03-25T16:35:16.714Z,11.88
2018-03-25T16:37:45.212Z,11.76
2018-03-25T16:40:13.578Z,11.70
2018-03-25T16:42:43.662Z,11.62
2018-03-25T16:45:12.131Z,11.55
2018-03-25T16:47:42.973Z,11.45
2018-03-25T16:50:12.082Z,11.40
2018-03-25T16:52:42.188Z,11.34
2018-03-25T16:55:14.003Z,11.27
2018-03-25T16:57:44.212Z,11.24
2018-03-25T17:00:12.747Z,11.18
2018-03-25T17:02:41.189Z,11.11
2018-03-25T17:05:10.517Z,10.99
2018-03-25T17:07:39.611Z,10.94
2018-03-25T17:10:08.052Z,10.91
2018-03-25T17:12:37.309Z,10.87
2018-03-25T17:15:05.725Z,10.82
2018-03-25T17:17:35.932Z,10.73
2018-03-25T17:20:04.327Z,10.66
2018-03-25T17:22:33.041Z,10.58
2018-03-25T17:25:03.095Z,10.49
2018-03-25T17:27:32.262Z,10.40
2018-03-25T17:30:02.346Z,10.30
2018-03-25T17:32:31.489Z,10.23
2018-03-25T17:35:03.386Z,10.17
2018-03-25T17:37:31.972Z,10.07
2018-03-25T17:40:00.421Z,10.01
2018-03-25T17:42:28.885Z,9.94
2018-03-25T17:44:57.398Z,9.87
2018-03-25T17:47:27.463Z,9.79
2018-03-25T17:49:55.953Z,9.70
2018-03-25T17:52:26.593Z,9.62
2018-03-25T17:54:56.241Z,9.53
2018-03-25T17:57:24.652Z,9.46
2018-03-25T17:59:57.393Z,9.36
2018-03-25T18:02:26.153Z,9.27
2018-03-25T18:04:54.670Z,9.17
2018-03-25T18:07:25.951Z,9.08
2018-03-25T18:09:54.434Z,9.00
2018-03-25T18:12:23.868Z,8.94
2018-03-25T18:14:52.346Z,8.87
2018-03-25T18:17:33.465Z,8.79
2018-03-25T18:19:49.238Z,8.71
2018-03-25T18:22:18.395Z,8.63
2018-03-25T18:24:49.453Z,8.54
2018-03-25T18:27:22.022Z,8.44
2018-03-25T18:29:50.431Z,8.34
2018-03-25T18:32:18.887Z,8.26
2018-03-25T18:34:49.046Z,8.18
2018-03-25T18:37:17.498Z,8.09
2018-03-25T18:39:46.112Z,8.02
2018-03-25T18:42:16.278Z,7.95
2018-03-25T18:44:44.781Z,7.86
2018-03-25T18:47:14.803Z,7.75
2018-03-25T18:49:43.701Z,7.65
2018-03-25T18:52:12.805Z,7.58
2018-03-25T18:54:41.315Z,7.51
2018-03-25T18:57:09.869Z,7.45
2018-03-25T18:59:38.301Z,7.39
2018-03-25T19:02:07.617Z,7.34
2018-03-25T19:04:38.024Z,7.30
2018-03-25T19:07:10.473Z,7.23
2018-03-25T19:09:41.507Z,7.16
2018-03-25T19:12:11.114Z,7.09
2018-03-25T19:14:40.821Z,7.02
2018-03-25T19:17:13.989Z,6.95
2018-03-25T19:19:42.617Z,6.89
2018-03-25T19:22:11.152Z,6.82
2018-03-25T19:24:39.911Z,6.77
2018-03-25T19:27:10.203Z,6.73
2018-03-25T19:29:43.018Z,6.68
2018-03-25T19:32:14.753Z,6.64
2018-03-25T19:34:43.236Z,6.60
2018-03-25T19:37:11.837Z,6.56
2018-03-25T19:39:41.502Z,6.52
2018-03-25T19:42:10.190Z,6.47
2018-03-25T19:44:41.504Z,6.43
2018-03-25T19:47:10.021Z,6.38
2018-03-25T19:49:40.375Z,6.32
2018-03-25T19:52:10.878Z,6.28
2018-03-25T19:54:41.008Z,6.23
2018-03-25T19:57:09.531Z,6.19
2018-03-25T19:59:40.569Z,6.16
2018-03-25T20:02:08.983Z,6.13
2018-03-25T20:04:37.336Z,6.09
2018-03-25T20:07:08.810Z,6.05
2018-03-25T20:09:37.244Z,6.02
2018-03-25T20:12:05.639Z,5.98
2018-03-25T20:14:35.868Z,5.94
2018-03-25T20:17:06.743Z,5.90
2018-03-25T20:19:35.525Z,5.84
2018-03-25T20:22:06.324Z,5.77
2018-03-25T20:24:35.145Z,5.71
2018-03-25T20:27:03.541Z,5.64
2018-03-25T20:29:33.690Z,5.56
2018-03-25T20:32:02.112Z,5.48
2018-03-25T20:34:32.858Z,5.41
2018-03-25T20:37:05.544Z,5.35
2018-03-25T20:42:08.744Z,5.24
2018-03-25T20:44:39.214Z,5.23
2018-03-25T20:47:12.235Z,5.20
2018-03-25T20:49:41.027Z,5.18
2018-03-25T20:52:10.378Z,5.13
2018-03-25T20:54:40.786Z,5.13
2018-03-25T20:57:10.330Z,5.09
2018-03-25T20:59:38.743Z,5.02
2018-03-25T21:02:07.259Z,4.97
2018-03-25T21:04:35.764Z,4.91
2018-03-25T21:07:05.670Z,4.87
2018-03-25T21:09:35.824Z,4.80
2018-03-25T21:12:04.187Z,4.72
2018-03-25T21:14:35.228Z,4.68
2018-03-25T21:17:03.672Z,4.65
2018-03-25T21:19:32.809Z,4.61
2018-03-25T21:22:03.032Z,4.56
2018-03-25T21:24:32.362Z,4.53
2018-03-25T21:27:01.026Z,4.45
2018-03-25T21:29:29.312Z,4.39
2018-03-25T21:31:59.433Z,4.37
2018-03-25T21:34:29.368Z,4.35
2018-03-25T21:36:57.854Z,4.30
2018-03-25T21:39:27.804Z,4.27
2018-03-25T21:41:57.973Z,4.25
2018-03-25T21:44:28.125Z,4.19
2018-03-25T21:46:56.570Z,4.15
2018-03-25T21:49:28.105Z,4.11
2018-03-25T21:51:56.453Z,4.11
2018-03-25T21:54:27.573Z,4.09
2018-03-25T21:56:56.036Z,4.07
2018-03-25T21:59:24.480Z,4.03
2018-03-25T22:01:55.497Z,4.00
2018-03-25T22:04:23.881Z,3.97
2018-03-25T22:06:52.229Z,3.90
2018-03-25T22:09:23.171Z,3.87
2018-03-25T22:11:51.589Z,3.83
2018-03-25T22:14:19.944Z,3.79
2018-03-25T22:16:48.279Z,3.67
2018-03-25T22:19:16.777Z,3.50
2018-03-25T22:21:45.231Z,3.43
2018-03-25T22:24:13.576Z,3.41
2018-03-25T22:26:43.719Z,3.37
2018-03-25T22:29:14.693Z,3.37
2018-03-25T22:31:43.099Z,3.40
2018-03-25T22:34:12.189Z,3.42
2018-03-25T22:36:41.390Z,3.40
2018-03-25T22:39:09.759Z,3.41
2018-03-25T22:41:38.117Z,3.43
2018-03-25T22:44:06.593Z,3.44
2018-03-25T22:46:34.929Z,3.44
2018-03-25T22:49:05.042Z,3.44
2018-03-25T22:51:33.435Z,3.41
2018-03-25T22:54:06.393Z,3.39
2018-03-25T22:56:34.833Z,3.38
2018-03-25T22:59:05.911Z,3.39
2018-03-25T23:01:36.244Z,3.39
2018-03-25T23:04:06.934Z,3.34
2018-03-25T23:06:37.218Z,3.30
2018-03-25T23:09:13.293Z,3.27
2018-03-25T23:11:44.431Z,3.29
2018-03-25T23:14:12.830Z,3.25
2018-03-25T23:16:43.869Z,3.17
2018-03-25T23:19:12.287Z,3.10
2018-03-25T23:21:40.831Z,3.02
2018-03-25T23:24:11.286Z,3.00
2018-03-25T23:26:42.166Z,2.99
2018-03-25T23:29:12.758Z,2.97
2018-03-25T23:31:41.211Z,2.98
2018-03-25T23:34:12.362Z,2.98
2018-03-25T23:36:41.451Z,2.97
2018-03-25T23:39:09.786Z,2.96
2018-03-25T23:41:39.819Z,2.95
2018-03-25T23:44:08.163Z,2.95
2018-03-25T23:46:36.604Z,2.93
2018-03-25T23:49:04.876Z,2.91
2018-03-25T23:51:33.328Z,2.83
2018-03-25T23:54:01.618Z,2.78
2018-03-25T23:56:30.348Z,2.75
2018-03-25T23:58:58.635Z,2.72
